sensor_id;sensor_type;location;lat;lon;timestamp;temperature;humidity
2941;DHT22;1480;51.456;6.670;2022-10-10T00:00:58;13.20;67.70
2941;DHT22;1480;51.456;6.670;2022-10-10T00:03:25;13.20;68.50
2941;DHT22;1480;51.456;6.670;2022-10-10T00:05:52;13.20;67.90
2941;DHT22;1480;51.456;6.670;2022-10-10T00:08:20;13.30;67.50
2941;DHT22;1480;51.456;6.670;2022-10-10T00:10:47;13.10;68.10
2941;DHT22;1480;51.456;6.670;2022-10-10T00:13:14;13.10;67.70
2941;DHT22;1480;51.456;6.670;2022-10-10T00:15:42;13.20;67.80
2941;DHT22;1480;51.456;6.670;2022-10-10T00:18:09;13.10;67.90
2941;DHT22;1480;51.456;6.670;2022-10-10T00:20:36;13.10;67.60
2941;DHT22;1480;51.456;6.670;2022-10-10T00:23:03;13.10;68.30
2941;DHT22;1480;51.456;6.670;2022-10-10T00:25:31;13.00;68.50
2941;DHT22;1480;51.456;6.670;2022-10-10T00:28:00;13.10;68.90
2941;DHT22;1480;51.456;6.670;2022-10-10T00:30:27;13.00;68.40
2941;DHT22;1480;51.456;6.670;2022-10-10T00:32:54;13.00;68.80
2941;DHT22;1480;51.456;6.670;2022-10-10T00:35:21;13.00;68.80
2941;DHT22;1480;51.456;6.670;2022-10-10T00:37:48;13.00;68.90
2941;DHT22;1480;51.456;6.670;2022-10-10T00:40:15;12.80;69.10
2941;DHT22;1480;51.456;6.670;2022-10-10T00:42:43;12.90;69.00
2941;DHT22;1480;51.456;6.670;2022-10-10T00:45:23;12.80;69.60
2941;DHT22;1480;51.456;6.670;2022-10-10T00:47:54;12.80;69.30
2941;DHT22;1480;51.456;6.670;2022-10-10T00:50:22;12.60;71.00
2941;DHT22;1480;51.456;6.670;2022-10-10T00:52:50;12.70;69.40
2941;DHT22;1480;51.456;6.670;2022-10-10T00:55:18;12.70;69.40
2941;DHT22;1480;51.456;6.670;2022-10-10T00:57:47;12.80;69.80
2941;DHT22;1480;51.456;6.670;2022-10-10T01:00:15;12.70;70.00
2941;DHT22;1480;51.456;6.670;2022-10-10T01:02:41;12.80;69.80
2941;DHT22;1480;51.456;6.670;2022-10-10T01:05:08;12.70;70.00
2941;DHT22;1480;51.456;6.670;2022-10-10T01:07:35;12.70;69.70
2941;DHT22;1480;51.456;6.670;2022-10-10T01:10:07;12.70;69.30
2941;DHT22;1480;51.456;6.670;2022-10-10T01:12:44;12.70;69.30
2941;DHT22;1480;51.456;6.670;2022-10-10T01:15:20;12.70;69.30
2941;DHT22;1480;51.456;6.670;2022-10-10T01:17:56;12.60;70.50
2941;DHT22;1480;51.456;6.670;2022-10-10T01:29:33;12.70;70.10
2941;DHT22;1480;51.456;6.670;2022-10-10T01:32:07;12.70;70.50
2941;DHT22;1480;51.456;6.670;2022-10-10T01:34:40;12.70;69.60
2941;DHT22;1480;51.456;6.670;2022-10-10T01:37:16;12.80;69.90
2941;DHT22;1480;51.456;6.670;2022-10-10T01:39:51;12.90;69.70
2941;DHT22;1480;51.456;6.670;2022-10-10T01:42:22;12.90;69.50
2941;DHT22;1480;51.456;6.670;2022-10-10T01:44:51;12.80;69.30
2941;DHT22;1480;51.456;6.670;2022-10-10T01:47:19;12.90;69.40
2941;DHT22;1480;51.456;6.670;2022-10-10T01:49:49;13.00;69.20
2941;DHT22;1480;51.456;6.670;2022-10-10T01:52:24;12.90;68.80
2941;DHT22;1480;51.456;6.670;2022-10-10T01:55:04;12.90;69.30
2941;DHT22;1480;51.456;6.670;2022-10-10T01:57:41;12.80;69.10
2941;DHT22;1480;51.456;6.670;2022-10-10T02:00:14;12.80;69.10
2941;DHT22;1480;51.456;6.670;2022-10-10T02:02:48;12.60;70.30
2941;DHT22;1480;51.456;6.670;2022-10-10T02:05:20;12.60;70.70
2941;DHT22;1480;51.456;6.670;2022-10-10T02:07:52;12.60;70.70
2941;DHT22;1480;51.456;6.670;2022-10-10T02:10:23;12.60;70.80
2941;DHT22;1480;51.456;6.670;2022-10-10T02:12:53;12.60;70.90
2941;DHT22;1480;51.456;6.670;2022-10-10T02:15:24;12.60;70.90
2941;DHT22;1480;51.456;6.670;2022-10-10T02:17:53;12.50;71.20
2941;DHT22;1480;51.456;6.670;2022-10-10T02:20:25;12.50;71.50
2941;DHT22;1480;51.456;6.670;2022-10-10T02:22:54;12.40;71.00
2941;DHT22;1480;51.456;6.670;2022-10-10T02:25:25;12.40;71.30
2941;DHT22;1480;51.456;6.670;2022-10-10T02:28:00;12.40;71.40
2941;DHT22;1480;51.456;6.670;2022-10-10T02:30:34;12.50;71.50
2941;DHT22;1480;51.456;6.670;2022-10-10T02:33:02;12.50;71.10
2941;DHT22;1480;51.456;6.670;2022-10-10T02:35:32;12.50;71.00
2941;DHT22;1480;51.456;6.670;2022-10-10T02:38:01;12.50;71.00
2941;DHT22;1480;51.456;6.670;2022-10-10T02:40:31;12.60;70.90
2941;DHT22;1480;51.456;6.670;2022-10-10T02:43:01;12.50;70.80
2941;DHT22;1480;51.456;6.670;2022-10-10T02:45:29;12.50;71.70
2941;DHT22;1480;51.456;6.670;2022-10-10T02:47:59;12.50;71.70
2941;DHT22;1480;51.456;6.670;2022-10-10T02:50:27;12.60;71.50
2941;DHT22;1480;51.456;6.670;2022-10-10T02:52:55;12.50;71.40
2941;DHT22;1480;51.456;6.670;2022-10-10T02:55:22;12.50;71.90
2941;DHT22;1480;51.456;6.670;2022-10-10T02:57:50;12.60;71.60
2941;DHT22;1480;51.456;6.670;2022-10-10T03:00:18;12.50;71.40
2941;DHT22;1480;51.456;6.670;2022-10-10T03:02:45;12.60;72.20
2941;DHT22;1480;51.456;6.670;2022-10-10T03:05:14;12.50;71.70
2941;DHT22;1480;51.456;6.670;2022-10-10T03:07:41;12.50;72.00
2941;DHT22;1480;51.456;6.670;2022-10-10T03:10:08;12.50;71.90
2941;DHT22;1480;51.456;6.670;2022-10-10T03:12:35;12.40;71.90
2941;DHT22;1480;51.456;6.670;2022-10-10T03:15:04;12.50;71.80
2941;DHT22;1480;51.456;6.670;2022-10-10T03:17:31;12.50;72.20
2941;DHT22;1480;51.456;6.670;2022-10-10T03:19:58;12.50;72.30
2941;DHT22;1480;51.456;6.670;2022-10-10T03:22:26;12.60;72.30
2941;DHT22;1480;51.456;6.670;2022-10-10T03:24:53;12.40;72.20
2941;DHT22;1480;51.456;6.670;2022-10-10T03:27:20;12.40;72.40
2941;DHT22;1480;51.456;6.670;2022-10-10T03:29:46;12.40;73.00
2941;DHT22;1480;51.456;6.670;2022-10-10T03:32:13;12.50;72.40
2941;DHT22;1480;51.456;6.670;2022-10-10T03:34:40;12.60;72.60
2941;DHT22;1480;51.456;6.670;2022-10-10T03:37:07;12.40;72.50
2941;DHT22;1480;51.456;6.670;2022-10-10T03:39:36;12.40;72.30
2941;DHT22;1480;51.456;6.670;2022-10-10T03:42:03;12.50;72.90
2941;DHT22;1480;51.456;6.670;2022-10-10T03:44:30;12.50;72.40
2941;DHT22;1480;51.456;6.670;2022-10-10T03:46:57;12.40;73.10
2941;DHT22;1480;51.456;6.670;2022-10-10T03:49:24;12.50;72.90
2941;DHT22;1480;51.456;6.670;2022-10-10T03:51:51;12.60;73.20
2941;DHT22;1480;51.456;6.670;2022-10-10T03:54:19;12.50;72.90
2941;DHT22;1480;51.456;6.670;2022-10-10T03:56:47;12.50;73.30
2941;DHT22;1480;51.456;6.670;2022-10-10T03:59:14;12.50;73.50
2941;DHT22;1480;51.456;6.670;2022-10-10T04:01:41;12.40;73.50
2941;DHT22;1480;51.456;6.670;2022-10-10T04:04:08;12.40;73.40
2941;DHT22;1480;51.456;6.670;2022-10-10T04:06:35;12.50;74.00
2941;DHT22;1480;51.456;6.670;2022-10-10T04:09:02;12.40;73.50
2941;DHT22;1480;51.456;6.670;2022-10-10T04:11:29;12.40;74.40
2941;DHT22;1480;51.456;6.670;2022-10-10T04:13:57;12.50;74.50
2941;DHT22;1480;51.456;6.670;2022-10-10T04:16:24;12.30;74.20
2941;DHT22;1480;51.456;6.670;2022-10-10T04:18:51;12.40;74.30
2941;DHT22;1480;51.456;6.670;2022-10-10T04:21:18;12.40;74.70
2941;DHT22;1480;51.456;6.670;2022-10-10T04:23:44;12.60;74.70
2941;DHT22;1480;51.456;6.670;2022-10-10T04:26:12;12.40;74.90
2941;DHT22;1480;51.456;6.670;2022-10-10T04:28:39;12.40;75.00
2941;DHT22;1480;51.456;6.670;2022-10-10T04:31:07;12.40;74.80
2941;DHT22;1480;51.456;6.670;2022-10-10T04:33:34;12.40;75.10
2941;DHT22;1480;51.456;6.670;2022-10-10T04:36:01;12.30;75.20
2941;DHT22;1480;51.456;6.670;2022-10-10T04:38:28;12.30;75.30
2941;DHT22;1480;51.456;6.670;2022-10-10T04:40:55;12.30;75.90
2941;DHT22;1480;51.456;6.670;2022-10-10T04:43:22;12.20;76.10
2941;DHT22;1480;51.456;6.670;2022-10-10T04:45:49;12.20;76.10
2941;DHT22;1480;51.456;6.670;2022-10-10T04:48:17;12.30;76.70
2941;DHT22;1480;51.456;6.670;2022-10-10T04:50:50;12.20;77.00
2941;DHT22;1480;51.456;6.670;2022-10-10T04:53:17;12.20;77.30
2941;DHT22;1480;51.456;6.670;2022-10-10T04:55:44;12.20;77.00
2941;DHT22;1480;51.456;6.670;2022-10-10T04:58:11;12.10;77.50
2941;DHT22;1480;51.456;6.670;2022-10-10T05:00:38;12.20;77.10
2941;DHT22;1480;51.456;6.670;2022-10-10T05:03:05;12.20;77.20
2941;DHT22;1480;51.456;6.670;2022-10-10T05:05:34;12.20;77.20
2941;DHT22;1480;51.456;6.670;2022-10-10T05:08:01;12.10;77.40
2941;DHT22;1480;51.456;6.670;2022-10-10T05:10:27;12.10;77.30
2941;DHT22;1480;51.456;6.670;2022-10-10T05:12:54;12.10;77.20
2941;DHT22;1480;51.456;6.670;2022-10-10T05:15:21;12.10;78.00
2941;DHT22;1480;51.456;6.670;2022-10-10T05:17:49;12.00;78.00
2941;DHT22;1480;51.456;6.670;2022-10-10T05:20:16;12.00;78.20
2941;DHT22;1480;51.456;6.670;2022-10-10T05:22:44;12.00;78.20
2941;DHT22;1480;51.456;6.670;2022-10-10T05:25:11;12.00;78.20
2941;DHT22;1480;51.456;6.670;2022-10-10T05:27:38;11.90;78.50
2941;DHT22;1480;51.456;6.670;2022-10-10T05:30:06;11.80;78.60
2941;DHT22;1480;51.456;6.670;2022-10-10T05:32:33;11.90;78.60
2941;DHT22;1480;51.456;6.670;2022-10-10T05:35:00;12.00;78.90
2941;DHT22;1480;51.456;6.670;2022-10-10T05:37:28;11.90;79.00
2941;DHT22;1480;51.456;6.670;2022-10-10T05:39:57;11.80;79.00
2941;DHT22;1480;51.456;6.670;2022-10-10T05:42:24;11.80;78.90
2941;DHT22;1480;51.456;6.670;2022-10-10T05:44:50;11.80;78.70
2941;DHT22;1480;51.456;6.670;2022-10-10T05:47:17;11.70;79.20
2941;DHT22;1480;51.456;6.670;2022-10-10T05:49:44;11.80;79.30
2941;DHT22;1480;51.456;6.670;2022-10-10T05:52:11;11.90;79.40
2941;DHT22;1480;51.456;6.670;2022-10-10T05:54:38;11.90;79.30
2941;DHT22;1480;51.456;6.670;2022-10-10T05:57:06;11.70;79.00
2941;DHT22;1480;51.456;6.670;2022-10-10T05:59:33;11.80;79.40
2941;DHT22;1480;51.456;6.670;2022-10-10T06:02:00;11.70;79.40
2941;DHT22;1480;51.456;6.670;2022-10-10T06:04:27;11.80;79.90
2941;DHT22;1480;51.456;6.670;2022-10-10T06:06:54;11.70;79.80
2941;DHT22;1480;51.456;6.670;2022-10-10T06:09:21;11.70;79.90
2941;DHT22;1480;51.456;6.670;2022-10-10T06:11:48;11.80;79.50
2941;DHT22;1480;51.456;6.670;2022-10-10T06:14:16;11.80;80.10
2941;DHT22;1480;51.456;6.670;2022-10-10T06:16:43;11.80;80.10
2941;DHT22;1480;51.456;6.670;2022-10-10T06:19:10;11.90;80.00
2941;DHT22;1480;51.456;6.670;2022-10-10T06:21:37;11.80;79.90
2941;DHT22;1480;51.456;6.670;2022-10-10T06:24:05;11.90;80.10
2941;DHT22;1480;51.456;6.670;2022-10-10T06:26:33;11.90;80.20
2941;DHT22;1480;51.456;6.670;2022-10-10T06:28:59;12.00;80.00
2941;DHT22;1480;51.456;6.670;2022-10-10T06:31:28;12.10;79.70
2941;DHT22;1480;51.456;6.670;2022-10-10T06:33:55;12.10;79.50
2941;DHT22;1480;51.456;6.670;2022-10-10T06:36:21;12.20;79.30
2941;DHT22;1480;51.456;6.670;2022-10-10T06:38:48;12.20;79.70
2941;DHT22;1480;51.456;6.670;2022-10-10T06:41:15;12.40;79.60
2941;DHT22;1480;51.456;6.670;2022-10-10T06:43:42;12.50;79.70
2941;DHT22;1480;51.456;6.670;2022-10-10T06:46:09;12.60;79.20
2941;DHT22;1480;51.456;6.670;2022-10-10T06:48:38;12.60;79.70
2941;DHT22;1480;51.456;6.670;2022-10-10T06:51:07;12.80;77.80
2941;DHT22;1480;51.456;6.670;2022-10-10T06:53:34;12.70;77.80
2941;DHT22;1480;51.456;6.670;2022-10-10T06:56:02;12.90;77.70
2941;DHT22;1480;51.456;6.670;2022-10-10T06:58:29;13.00;77.80
2941;DHT22;1480;51.456;6.670;2022-10-10T07:00:58;13.20;77.80
2941;DHT22;1480;51.456;6.670;2022-10-10T07:03:27;13.20;77.60
2941;DHT22;1480;51.456;6.670;2022-10-10T07:05:57;13.30;77.40
2941;DHT22;1480;51.456;6.670;2022-10-10T07:08:25;13.30;77.60
2941;DHT22;1480;51.456;6.670;2022-10-10T07:10:52;13.30;77.40
2941;DHT22;1480;51.456;6.670;2022-10-10T07:13:20;13.40;77.20
2941;DHT22;1480;51.456;6.670;2022-10-10T07:15:47;13.40;77.70
2941;DHT22;1480;51.456;6.670;2022-10-10T07:18:16;13.60;77.50
2941;DHT22;1480;51.456;6.670;2022-10-10T07:20:43;13.60;77.50
2941;DHT22;1480;51.456;6.670;2022-10-10T07:23:11;13.60;77.40
2941;DHT22;1480;51.456;6.670;2022-10-10T07:25:40;13.70;77.40
2941;DHT22;1480;51.456;6.670;2022-10-10T07:28:08;13.70;77.30
2941;DHT22;1480;51.456;6.670;2022-10-10T07:30:38;13.70;77.30
2941;DHT22;1480;51.456;6.670;2022-10-10T07:33:08;13.60;77.40
2941;DHT22;1480;51.456;6.670;2022-10-10T07:35:34;13.60;77.50
2941;DHT22;1480;51.456;6.670;2022-10-10T07:38:01;13.60;77.30
2941;DHT22;1480;51.456;6.670;2022-10-10T07:40:30;13.60;77.70
2941;DHT22;1480;51.456;6.670;2022-10-10T07:42:57;13.60;77.60
2941;DHT22;1480;51.456;6.670;2022-10-10T07:45:25;13.60;77.60
2941;DHT22;1480;51.456;6.670;2022-10-10T07:47:52;13.60;77.60
2941;DHT22;1480;51.456;6.670;2022-10-10T07:50:19;13.60;78.00
2941;DHT22;1480;51.456;6.670;2022-10-10T07:52:46;13.70;77.90
2941;DHT22;1480;51.456;6.670;2022-10-10T07:55:12;13.80;78.10
2941;DHT22;1480;51.456;6.670;2022-10-10T07:57:41;13.70;78.10
2941;DHT22;1480;51.456;6.670;2022-10-10T08:00:09;13.70;78.20
2941;DHT22;1480;51.456;6.670;2022-10-10T08:02:39;13.90;78.00
2941;DHT22;1480;51.456;6.670;2022-10-10T08:05:06;14.00;78.50
2941;DHT22;1480;51.456;6.670;2022-10-10T08:07:33;14.00;78.00
2941;DHT22;1480;51.456;6.670;2022-10-10T08:10:00;14.10;78.00
2941;DHT22;1480;51.456;6.670;2022-10-10T08:12:28;14.20;77.90
2941;DHT22;1480;51.456;6.670;2022-10-10T08:14:56;14.30;78.30
2941;DHT22;1480;51.456;6.670;2022-10-10T08:17:23;14.40;77.60
2941;DHT22;1480;51.456;6.670;2022-10-10T08:19:50;14.60;77.40
2941;DHT22;1480;51.456;6.670;2022-10-10T08:22:17;14.80;77.10
2941;DHT22;1480;51.456;6.670;2022-10-10T08:24:44;14.80;76.80
2941;DHT22;1480;51.456;6.670;2022-10-10T08:27:11;15.00;76.40
2941;DHT22;1480;51.456;6.670;2022-10-10T08:29:40;15.00;76.20
2941;DHT22;1480;51.456;6.670;2022-10-10T08:32:08;15.10;75.80
2941;DHT22;1480;51.456;6.670;2022-10-10T08:34:35;15.10;76.80
2941;DHT22;1480;51.456;6.670;2022-10-10T08:37:02;15.20;76.80
2941;DHT22;1480;51.456;6.670;2022-10-10T08:39:29;15.30;76.20
2941;DHT22;1480;51.456;6.670;2022-10-10T08:41:58;15.30;74.80
2941;DHT22;1480;51.456;6.670;2022-10-10T08:44:28;15.40;74.00
2941;DHT22;1480;51.456;6.670;2022-10-10T08:46:58;15.50;74.90
2941;DHT22;1480;51.456;6.670;2022-10-10T08:49:31;15.60;75.00
2941;DHT22;1480;51.456;6.670;2022-10-10T08:52:04;15.80;75.80
2941;DHT22;1480;51.456;6.670;2022-10-10T08:54:31;15.90;73.50
2941;DHT22;1480;51.456;6.670;2022-10-10T08:57:03;16.00;73.30
2941;DHT22;1480;51.456;6.670;2022-10-10T08:59:33;16.20;72.90
2941;DHT22;1480;51.456;6.670;2022-10-10T09:02:28;16.30;73.30
2941;DHT22;1480;51.456;6.670;2022-10-10T09:04:56;16.40;72.20
2941;DHT22;1480;51.456;6.670;2022-10-10T09:07:33;16.50;71.60
2941;DHT22;1480;51.456;6.670;2022-10-10T09:10:12;16.70;72.10
2941;DHT22;1480;51.456;6.670;2022-10-10T09:12:50;16.80;71.50
2941;DHT22;1480;51.456;6.670;2022-10-10T09:15:22;17.10;71.60
2941;DHT22;1480;51.456;6.670;2022-10-10T09:17:55;17.10;69.50
2941;DHT22;1480;51.456;6.670;2022-10-10T09:20:41;17.30;70.90
2941;DHT22;1480;51.456;6.670;2022-10-10T09:23:18;17.40;70.60
2941;DHT22;1480;51.456;6.670;2022-10-10T09:25:51;17.40;70.70
2941;DHT22;1480;51.456;6.670;2022-10-10T09:28:31;17.40;69.90
2941;DHT22;1480;51.456;6.670;2022-10-10T09:31:00;17.30;69.40
2941;DHT22;1480;51.456;6.670;2022-10-10T09:33:34;17.40;70.80
2941;DHT22;1480;51.456;6.670;2022-10-10T09:36:05;17.50;71.10
2941;DHT22;1480;51.456;6.670;2022-10-10T09:38:38;17.60;71.50
2941;DHT22;1480;51.456;6.670;2022-10-10T09:41:12;17.70;70.20
2941;DHT22;1480;51.456;6.670;2022-10-10T09:43:41;17.90;69.80
2941;DHT22;1480;51.456;6.670;2022-10-10T09:46:08;18.00;69.00
2941;DHT22;1480;51.456;6.670;2022-10-10T09:48:38;18.10;69.40
2941;DHT22;1480;51.456;6.670;2022-10-10T09:51:10;18.20;69.30
2941;DHT22;1480;51.456;6.670;2022-10-10T09:53:38;18.30;67.90
2941;DHT22;1480;51.456;6.670;2022-10-10T09:56:07;18.50;65.70
2941;DHT22;1480;51.456;6.670;2022-10-10T09:58:42;18.50;66.30
2941;DHT22;1480;51.456;6.670;2022-10-10T10:01:12;18.70;67.50
2941;DHT22;1480;51.456;6.670;2022-10-10T10:03:42;18.70;66.70
2941;DHT22;1480;51.456;6.670;2022-10-10T10:06:11;18.80;66.10
2941;DHT22;1480;51.456;6.670;2022-10-10T10:08:40;18.90;66.30
2941;DHT22;1480;51.456;6.670;2022-10-10T10:11:24;19.00;66.10
2941;DHT22;1480;51.456;6.670;2022-10-10T10:13:54;19.10;66.40
2941;DHT22;1480;51.456;6.670;2022-10-10T10:16:30;19.10;64.80
2941;DHT22;1480;51.456;6.670;2022-10-10T10:18:59;19.20;65.30
2941;DHT22;1480;51.456;6.670;2022-10-10T10:21:27;19.30;64.10
2941;DHT22;1480;51.456;6.670;2022-10-10T10:23:57;19.30;64.10
2941;DHT22;1480;51.456;6.670;2022-10-10T10:26:27;19.30;65.20
2941;DHT22;1480;51.456;6.670;2022-10-10T10:28:56;19.30;65.20
2941;DHT22;1480;51.456;6.670;2022-10-10T10:31:51;19.30;65.80
2941;DHT22;1480;51.456;6.670;2022-10-10T10:34:37;19.30;64.90
2941;DHT22;1480;51.456;6.670;2022-10-10T10:37:14;19.40;65.40
2941;DHT22;1480;51.456;6.670;2022-10-10T10:39:57;19.50;64.70
2941;DHT22;1480;51.456;6.670;2022-10-10T10:42:38;19.50;63.80
2941;DHT22;1480;51.456;6.670;2022-10-10T10:45:13;19.50;63.10
2941;DHT22;1480;51.456;6.670;2022-10-10T10:47:47;19.40;65.30
2941;DHT22;1480;51.456;6.670;2022-10-10T10:50:33;19.40;64.30
2941;DHT22;1480;51.456;6.670;2022-10-10T10:53:09;19.50;65.10
2941;DHT22;1480;51.456;6.670;2022-10-10T10:55:44;19.60;66.50
2941;DHT22;1480;51.456;6.670;2022-10-10T11:01:25;19.50;65.60
2941;DHT22;1480;51.456;6.670;2022-10-10T11:03:59;19.50;65.50
2941;DHT22;1480;51.456;6.670;2022-10-10T11:06:51;19.50;65.60
2941;DHT22;1480;51.456;6.670;2022-10-10T11:09:25;19.60;67.70
2941;DHT22;1480;51.456;6.670;2022-10-10T11:12:05;19.60;65.80
2941;DHT22;1480;51.456;6.670;2022-10-10T11:14:50;19.60;64.60
2941;DHT22;1480;51.456;6.670;2022-10-10T11:17:22;19.70;65.90
2941;DHT22;1480;51.456;6.670;2022-10-10T11:19:55;19.80;65.70
2941;DHT22;1480;51.456;6.670;2022-10-10T11:22:28;19.90;63.50
2941;DHT22;1480;51.456;6.670;2022-10-10T11:25:00;19.90;65.50
2941;DHT22;1480;51.456;6.670;2022-10-10T11:27:33;20.10;64.20
2941;DHT22;1480;51.456;6.670;2022-10-10T11:30:11;20.10;63.80
2941;DHT22;1480;51.456;6.670;2022-10-10T11:32:45;20.10;63.40
2941;DHT22;1480;51.456;6.670;2022-10-10T11:35:18;20.00;63.80
2941;DHT22;1480;51.456;6.670;2022-10-10T11:37:52;20.10;65.30
2941;DHT22;1480;51.456;6.670;2022-10-10T11:43:21;20.10;65.00
2941;DHT22;1480;51.456;6.670;2022-10-10T11:45:53;20.00;62.40
2941;DHT22;1480;51.456;6.670;2022-10-10T11:48:26;20.00;63.00
2941;DHT22;1480;51.456;6.670;2022-10-10T11:50:58;20.00;64.30
2941;DHT22;1480;51.456;6.670;2022-10-10T11:53:32;19.90;64.10
2941;DHT22;1480;51.456;6.670;2022-10-10T11:56:09;19.90;62.70
2941;DHT22;1480;51.456;6.670;2022-10-10T11:58:40;19.90;63.90
2941;DHT22;1480;51.456;6.670;2022-10-10T12:01:15;19.90;64.20
2941;DHT22;1480;51.456;6.670;2022-10-10T12:03:44;19.90;64.40
2941;DHT22;1480;51.456;6.670;2022-10-10T12:06:16;19.90;64.40
2941;DHT22;1480;51.456;6.670;2022-10-10T12:08:51;20.10;65.20
2941;DHT22;1480;51.456;6.670;2022-10-10T12:11:25;20.00;64.60
2941;DHT22;1480;51.456;6.670;2022-10-10T12:13:55;20.00;63.90
2941;DHT22;1480;51.456;6.670;2022-10-10T12:16:27;20.00;65.20
2941;DHT22;1480;51.456;6.670;2022-10-10T12:18:58;20.00;63.90
2941;DHT22;1480;51.456;6.670;2022-10-10T12:21:28;20.00;65.90
2941;DHT22;1480;51.456;6.670;2022-10-10T12:24:09;20.00;65.90
2941;DHT22;1480;51.456;6.670;2022-10-10T12:29:42;20.10;65.30
2941;DHT22;1480;51.456;6.670;2022-10-10T12:32:22;20.20;65.00
2941;DHT22;1480;51.456;6.670;2022-10-10T12:34:57;20.20;65.10
2941;DHT22;1480;51.456;6.670;2022-10-10T12:37:25;20.10;64.30
2941;DHT22;1480;51.456;6.670;2022-10-10T12:40:18;20.10;65.20
2941;DHT22;1480;51.456;6.670;2022-10-10T12:43:22;20.00;63.80
2941;DHT22;1480;51.456;6.670;2022-10-10T12:46:26;20.10;65.70
2941;DHT22;1480;51.456;6.670;2022-10-10T12:49:12;20.20;65.70
2941;DHT22;1480;51.456;6.670;2022-10-10T12:51:42;20.10;66.90
2941;DHT22;1480;51.456;6.670;2022-10-10T12:54:20;20.20;67.00
2941;DHT22;1480;51.456;6.670;2022-10-10T12:56:52;20.30;66.20
2941;DHT22;1480;51.456;6.670;2022-10-10T12:59:24;20.10;66.90
2941;DHT22;1480;51.456;6.670;2022-10-10T13:01:55;20.20;65.90
2941;DHT22;1480;51.456;6.670;2022-10-10T13:04:23;20.20;65.20
2941;DHT22;1480;51.456;6.670;2022-10-10T13:06:55;20.20;64.60
2941;DHT22;1480;51.456;6.670;2022-10-10T13:09:24;20.00;64.70
2941;DHT22;1480;51.456;6.670;2022-10-10T13:11:55;20.00;65.20
2941;DHT22;1480;51.456;6.670;2022-10-10T13:14:23;20.10;66.50
2941;DHT22;1480;51.456;6.670;2022-10-10T13:16:50;20.20;67.10
2941;DHT22;1480;51.456;6.670;2022-10-10T13:19:19;20.20;65.90
2941;DHT22;1480;51.456;6.670;2022-10-10T13:21:47;20.30;63.70
2941;DHT22;1480;51.456;6.670;2022-10-10T13:24:16;20.30;64.80
2941;DHT22;1480;51.456;6.670;2022-10-10T13:26:46;20.30;65.10
2941;DHT22;1480;51.456;6.670;2022-10-10T13:29:21;20.20;62.60
2941;DHT22;1480;51.456;6.670;2022-10-10T13:31:49;20.30;63.50
2941;DHT22;1480;51.456;6.670;2022-10-10T13:34:22;20.20;61.60
2941;DHT22;1480;51.456;6.670;2022-10-10T13:36:52;20.00;62.20
2941;DHT22;1480;51.456;6.670;2022-10-10T13:39:20;20.00;62.50
2941;DHT22;1480;51.456;6.670;2022-10-10T13:41:48;19.90;64.20
2941;DHT22;1480;51.456;6.670;2022-10-10T13:44:22;19.90;64.00
2941;DHT22;1480;51.456;6.670;2022-10-10T13:46:49;19.90;63.20
2941;DHT22;1480;51.456;6.670;2022-10-10T13:49:22;19.90;63.60
2941;DHT22;1480;51.456;6.670;2022-10-10T13:51:59;19.90;63.90
2941;DHT22;1480;51.456;6.670;2022-10-10T13:54:42;19.90;63.60
2941;DHT22;1480;51.456;6.670;2022-10-10T13:57:18;20.00;65.00
2941;DHT22;1480;51.456;6.670;2022-10-10T13:59:59;20.00;65.20
2941;DHT22;1480;51.456;6.670;2022-10-10T14:02:32;20.10;63.20
2941;DHT22;1480;51.456;6.670;2022-10-10T14:05:04;20.10;63.90
2941;DHT22;1480;51.456;6.670;2022-10-10T14:07:33;20.20;63.70
2941;DHT22;1480;51.456;6.670;2022-10-10T14:10:04;20.30;63.60
2941;DHT22;1480;51.456;6.670;2022-10-10T14:12:33;20.20;64.00
2941;DHT22;1480;51.456;6.670;2022-10-10T14:15:03;20.20;63.70
2941;DHT22;1480;51.456;6.670;2022-10-10T14:17:30;20.20;61.90
2941;DHT22;1480;51.456;6.670;2022-10-10T14:19:57;20.20;64.40
2941;DHT22;1480;51.456;6.670;2022-10-10T14:22:24;20.20;63.60
2941;DHT22;1480;51.456;6.670;2022-10-10T14:24:51;20.10;63.70
2941;DHT22;1480;51.456;6.670;2022-10-10T14:27:23;20.20;63.70
2941;DHT22;1480;51.456;6.670;2022-10-10T14:29:51;20.20;62.80
2941;DHT22;1480;51.456;6.670;2022-10-10T14:32:20;20.20;61.80
2941;DHT22;1480;51.456;6.670;2022-10-10T14:34:47;20.10;62.10
2941;DHT22;1480;51.456;6.670;2022-10-10T14:37:17;20.20;61.80
2941;DHT22;1480;51.456;6.670;2022-10-10T14:39:45;20.10;61.90
2941;DHT22;1480;51.456;6.670;2022-10-10T14:42:14;20.10;59.70
2941;DHT22;1480;51.456;6.670;2022-10-10T14:44:41;20.10;60.30
2941;DHT22;1480;51.456;6.670;2022-10-10T14:47:14;20.00;60.50
2941;DHT22;1480;51.456;6.670;2022-10-10T14:49:42;19.80;59.50
2941;DHT22;1480;51.456;6.670;2022-10-10T14:52:09;19.80;58.90
2941;DHT22;1480;51.456;6.670;2022-10-10T14:54:36;19.70;59.80
2941;DHT22;1480;51.456;6.670;2022-10-10T14:57:03;19.70;59.50
2941;DHT22;1480;51.456;6.670;2022-10-10T14:59:30;19.60;59.90
2941;DHT22;1480;51.456;6.670;2022-10-10T15:01:58;19.60;60.10
2941;DHT22;1480;51.456;6.670;2022-10-10T15:04:25;19.50;60.50
2941;DHT22;1480;51.456;6.670;2022-10-10T15:06:53;19.50;60.50
2941;DHT22;1480;51.456;6.670;2022-10-10T15:09:20;19.50;61.50
2941;DHT22;1480;51.456;6.670;2022-10-10T15:11:47;19.50;61.50
2941;DHT22;1480;51.456;6.670;2022-10-10T15:14:14;19.50;60.80
2941;DHT22;1480;51.456;6.670;2022-10-10T15:16:41;19.40;61.00
2941;DHT22;1480;51.456;6.670;2022-10-10T15:19:08;19.40;61.70
2941;DHT22;1480;51.456;6.670;2022-10-10T15:21:34;19.40;62.10
2941;DHT22;1480;51.456;6.670;2022-10-10T15:24:03;19.50;62.70
2941;DHT22;1480;51.456;6.670;2022-10-10T15:26:30;19.50;63.20
2941;DHT22;1480;51.456;6.670;2022-10-10T15:28:57;19.40;62.90
2941;DHT22;1480;51.456;6.670;2022-10-10T15:31:26;19.50;63.20
2941;DHT22;1480;51.456;6.670;2022-10-10T15:33:55;19.40;63.60
2941;DHT22;1480;51.456;6.670;2022-10-10T15:36:22;19.40;64.60
2941;DHT22;1480;51.456;6.670;2022-10-10T15:38:48;19.30;65.40
2941;DHT22;1480;51.456;6.670;2022-10-10T15:41:17;19.30;64.90
2941;DHT22;1480;51.456;6.670;2022-10-10T15:43:47;19.30;65.80
2941;DHT22;1480;51.456;6.670;2022-10-10T15:46:16;19.20;66.00
2941;DHT22;1480;51.456;6.670;2022-10-10T15:48:44;19.20;66.50
2941;DHT22;1480;51.456;6.670;2022-10-10T15:51:11;19.20;66.80
2941;DHT22;1480;51.456;6.670;2022-10-10T15:53:38;19.20;67.50
2941;DHT22;1480;51.456;6.670;2022-10-10T15:56:07;19.00;68.50
2941;DHT22;1480;51.456;6.670;2022-10-10T15:58:36;19.10;69.40
2941;DHT22;1480;51.456;6.670;2022-10-10T16:01:09;19.00;69.60
2941;DHT22;1480;51.456;6.670;2022-10-10T16:03:36;18.90;71.50
2941;DHT22;1480;51.456;6.670;2022-10-10T16:06:03;18.80;73.70
2941;DHT22;1480;51.456;6.670;2022-10-10T16:08:30;18.60;76.50
2941;DHT22;1480;51.456;6.670;2022-10-10T16:10:58;18.10;81.50
2941;DHT22;1480;51.456;6.670;2022-10-10T16:13:29;17.70;84.50
2941;DHT22;1480;51.456;6.670;2022-10-10T16:15:59;17.30;86.80
2941;DHT22;1480;51.456;6.670;2022-10-10T16:18:28;17.00;87.60
2941;DHT22;1480;51.456;6.670;2022-10-10T16:20:55;16.80;88.20
2941;DHT22;1480;51.456;6.670;2022-10-10T16:23:22;16.70;89.60
2941;DHT22;1480;51.456;6.670;2022-10-10T16:25:59;16.50;89.70
2941;DHT22;1480;51.456;6.670;2022-10-10T16:28:26;16.60;90.00
2941;DHT22;1480;51.456;6.670;2022-10-10T16:30:53;16.50;90.40
2941;DHT22;1480;51.456;6.670;2022-10-10T16:33:21;16.50;90.10
2941;DHT22;1480;51.456;6.670;2022-10-10T16:35:48;16.60;90.10
2941;DHT22;1480;51.456;6.670;2022-10-10T16:38:15;16.60;90.80